sensor_id;sensor_type;location;lat;lon;timestamp;temperature;humidity
31307;DHT22;17935;51.120;13.132;2023-11-21T00:07:59;8.60;99.90
31307;DHT22;17935;51.120;13.132;2023-11-21T00:10:43;8.50;99.90
31307;DHT22;17935;51.120;13.132;2023-11-21T00:13:33;8.50;99.90
31307;DHT22;17935;51.120;13.132;2023-11-21T00:16:12;8.50;99.90
31307;DHT22;17935;51.120;13.132;2023-11-21T00:22:02;8.50;99.90
31307;DHT22;17935;51.120;13.132;2023-11-21T00:28:29;8.50;99.90
31307;DHT22;17935;51.120;13.132;2023-11-21T00:31:10;8.50;99.90
31307;DHT22;17935;51.120;13.132;2023-11-21T00:33:41;8.50;99.90
31307;DHT22;17935;51.120;13.132;2023-11-21T00:36:31;8.50;99.90
31307;DHT22;17935;51.120;13.132;2023-11-21T00:39:26;8.50;99.90
31307;DHT22;17935;51.120;13.132;2023-11-21T00:41:52;8.50;99.90
31307;DHT22;17935;51.120;13.132;2023-11-21T00:44:28;8.60;99.90
31307;DHT22;17935;51.120;13.132;2023-11-21T00:47:14;8.60;99.90
31307;DHT22;17935;51.120;13.132;2023-11-21T00:55:51;8.50;99.90
31307;DHT22;17935;51.120;13.132;2023-11-21T00:58:38;8.50;99.90
31307;DHT22;17935;51.120;13.132;2023-11-21T01:01:03;8.40;99.90
31307;DHT22;17935;51.120;13.132;2023-11-21T01:03:29;8.40;99.90
31307;DHT22;17935;51.120;13.132;2023-11-21T01:05:55;8.20;99.90
31307;DHT22;17935;51.120;13.132;2023-11-21T01:08:21;8.10;99.90
31307;DHT22;17935;51.120;13.132;2023-11-21T01:11:15;8.10;99.90
31307;DHT22;17935;51.120;13.132;2023-11-21T01:13:51;8.00;99.90
31307;DHT22;17935;51.120;13.132;2023-11-21T01:17:18;8.00;99.90
31307;DHT22;17935;51.120;13.132;2023-11-21T01:23:06;8.10;99.90
31307;DHT22;17935;51.120;13.132;2023-11-21T01:26:23;8.10;99.90
31307;DHT22;17935;51.120;13.132;2023-11-21T01:29:06;8.10;99.90
31307;DHT22;17935;51.120;13.132;2023-11-21T01:31:43;8.00;99.90
31307;DHT22;17935;51.120;13.132;2023-11-21T01:41:24;8.10;99.90
31307;DHT22;17935;51.120;13.132;2023-11-21T01:47:28;8.20;99.90
31307;DHT22;17935;51.120;13.132;2023-11-21T02:01:55;7.60;99.90
31307;DHT22;17935;51.120;13.132;2023-11-21T02:04:56;7.50;99.90
31307;DHT22;17935;51.120;13.132;2023-11-21T02:11:13;7.50;99.90
31307;DHT22;17935;51.120;13.132;2023-11-21T02:20:32;7.30;99.90
31307;DHT22;17935;51.120;13.132;2023-11-21T02:26:41;7.10;99.90
31307;DHT22;17935;51.120;13.132;2023-11-21T02:45:58;6.90;99.90
31307;DHT22;17935;51.120;13.132;2023-11-21T02:49:08;7.00;99.90
31307;DHT22;17935;51.120;13.132;2023-11-21T02:55:02;7.10;99.90
31307;DHT22;17935;51.120;13.132;2023-11-21T03:04:43;7.30;99.90
31307;DHT22;17935;51.120;13.132;2023-11-21T03:08:03;7.40;99.90
31307;DHT22;17935;51.120;13.132;2023-11-21T03:28:41;7.60;99.90
31307;DHT22;17935;51.120;13.132;2023-11-21T03:32:00;7.70;99.90
31307;DHT22;17935;51.120;13.132;2023-11-21T03:42:32;7.70;99.90
31307;DHT22;17935;51.120;13.132;2023-11-21T03:50:08;7.90;99.90
31307;DHT22;17935;51.120;13.132;2023-11-21T03:52:42;8.00;99.90
31307;DHT22;17935;51.120;13.132;2023-11-21T03:55:30;7.90;99.90
31307;DHT22;17935;51.120;13.132;2023-11-21T03:58:43;7.90;99.90
31307;DHT22;17935;51.120;13.132;2023-11-21T04:01:27;7.90;99.90
31307;DHT22;17935;51.120;13.132;2023-11-21T04:04:14;7.90;99.90
31307;DHT22;17935;51.120;13.132;2023-11-21T04:07:03;7.80;99.90
31307;DHT22;17935;51.120;13.132;2023-11-21T04:09:43;7.70;99.90
31307;DHT22;17935;51.120;13.132;2023-11-21T04:12:17;7.70;99.90
31307;DHT22;17935;51.120;13.132;2023-11-21T04:14:49;7.60;99.90
31307;DHT22;17935;51.120;13.132;2023-11-21T04:17:36;7.60;99.90
31307;DHT22;17935;51.120;13.132;2023-11-21T04:20:27;7.60;99.90
31307;DHT22;17935;51.120;13.132;2023-11-21T04:22:58;7.50;99.90
31307;DHT22;17935;51.120;13.132;2023-11-21T04:26:06;7.40;99.90
31307;DHT22;17935;51.120;13.132;2023-11-21T04:28:45;7.20;99.90
31307;DHT22;17935;51.120;13.132;2023-11-21T04:31:23;7.20;99.90
31307;DHT22;17935;51.120;13.132;2023-11-21T04:33:54;7.30;99.90
31307;DHT22;17935;51.120;13.132;2023-11-21T04:36:20;7.40;99.90
31307;DHT22;17935;51.120;13.132;2023-11-21T04:39:09;7.40;99.90
31307;DHT22;17935;51.120;13.132;2023-11-21T04:44:19;7.50;99.90
31307;DHT22;17935;51.120;13.132;2023-11-21T04:46:49;7.50;99.90
31307;DHT22;17935;51.120;13.132;2023-11-21T04:49:27;7.40;99.90
31307;DHT22;17935;51.120;13.132;2023-11-21T04:52:01;7.40;99.90
31307;DHT22;17935;51.120;13.132;2023-11-21T04:54:42;7.30;99.90
31307;DHT22;17935;51.120;13.132;2023-11-21T04:57:36;7.10;99.90
31307;DHT22;17935;51.120;13.132;2023-11-21T05:00:23;6.90;99.90
31307;DHT22;17935;51.120;13.132;2023-11-21T05:03:17;6.80;99.90
31307;DHT22;17935;51.120;13.132;2023-11-21T05:09:02;6.60;99.90
31307;DHT22;17935;51.120;13.132;2023-11-21T05:11:30;6.50;99.90
31307;DHT22;17935;51.120;13.132;2023-11-21T05:14:19;6.50;99.90
31307;DHT22;17935;51.120;13.132;2023-11-21T05:20:14;6.30;99.90
31307;DHT22;17935;51.120;13.132;2023-11-21T05:23:08;6.20;99.90
31307;DHT22;17935;51.120;13.132;2023-11-21T05:26:00;6.30;99.90
31307;DHT22;17935;51.120;13.132;2023-11-21T05:28:46;6.40;99.90
31307;DHT22;17935;51.120;13.132;2023-11-21T05:31:41;6.50;99.90
31307;DHT22;17935;51.120;13.132;2023-11-21T05:34:46;6.50;99.90
31307;DHT22;17935;51.120;13.132;2023-11-21T05:37:55;6.50;99.90
31307;DHT22;17935;51.120;13.132;2023-11-21T05:40:27;6.60;99.90
31307;DHT22;17935;51.120;13.132;2023-11-21T05:43:12;6.70;99.90
31307;DHT22;17935;51.120;13.132;2023-11-21T05:45:45;6.80;99.90
31307;DHT22;17935;51.120;13.132;2023-11-21T05:51:48;7.00;99.90
31307;DHT22;17935;51.120;13.132;2023-11-21T05:54:25;7.10;99.90
31307;DHT22;17935;51.120;13.132;2023-11-21T05:56:54;7.20;99.90
31307;DHT22;17935;51.120;13.132;2023-11-21T05:59:23;7.20;99.90
31307;DHT22;17935;51.120;13.132;2023-11-21T06:04:58;7.40;99.90
31307;DHT22;17935;51.120;13.132;2023-11-21T06:07:56;7.40;99.90
31307;DHT22;17935;51.120;13.132;2023-11-21T06:17:11;7.60;99.90
31307;DHT22;17935;51.120;13.132;2023-11-21T06:19:39;7.70;99.90
31307;DHT22;17935;51.120;13.132;2023-11-21T06:22:07;7.70;99.90
31307;DHT22;17935;51.120;13.132;2023-11-21T06:24:47;7.80;99.90
31307;DHT22;17935;51.120;13.132;2023-11-21T06:27:18;7.80;99.90
31307;DHT22;17935;51.120;13.132;2023-11-21T06:29:52;7.80;99.90
31307;DHT22;17935;51.120;13.132;2023-11-21T06:32:23;7.80;99.90
31307;DHT22;17935;51.120;13.132;2023-11-21T06:34:52;7.90;99.90
31307;DHT22;17935;51.120;13.132;2023-11-21T06:37:45;7.90;99.90
31307;DHT22;17935;51.120;13.132;2023-11-21T06:45:24;8.00;99.90
31307;DHT22;17935;51.120;13.132;2023-11-21T06:47:55;8.10;99.90
31307;DHT22;17935;51.120;13.132;2023-11-21T06:50:30;8.10;99.90
31307;DHT22;17935;51.120;13.132;2023-11-21T06:52:59;8.10;99.90
31307;DHT22;17935;51.120;13.132;2023-11-21T06:58:03;8.20;99.90
31307;DHT22;17935;51.120;13.132;2023-11-21T07:01:05;8.30;99.90
31307;DHT22;17935;51.120;13.132;2023-11-21T07:03:34;8.30;99.90
31307;DHT22;17935;51.120;13.132;2023-11-21T07:09:32;8.30;99.90
31307;DHT22;17935;51.120;13.132;2023-11-21T07:12:32;8.30;99.90
31307;DHT22;17935;51.120;13.132;2023-11-21T07:15:24;8.30;99.90
31307;DHT22;17935;51.120;13.132;2023-11-21T07:17:51;8.30;99.90
31307;DHT22;17935;51.120;13.132;2023-11-21T07:36:17;8.30;99.90
31307;DHT22;17935;51.120;13.132;2023-11-21T07:38:58;8.30;99.90
31307;DHT22;17935;51.120;13.132;2023-11-21T07:41:27;8.30;99.90
31307;DHT22;17935;51.120;13.132;2023-11-21T07:44:16;8.40;99.90
31307;DHT22;17935;51.120;13.132;2023-11-21T07:46:48;8.40;99.90
31307;DHT22;17935;51.120;13.132;2023-11-21T07:49:18;8.50;99.90
31307;DHT22;17935;51.120;13.132;2023-11-21T07:51:51;8.60;99.90
31307;DHT22;17935;51.120;13.132;2023-11-21T07:54:21;8.70;99.90
31307;DHT22;17935;51.120;13.132;2023-11-21T07:56:52;8.70;99.90
31307;DHT22;17935;51.120;13.132;2023-11-21T07:59:46;8.80;99.90
31307;DHT22;17935;51.120;13.132;2023-11-21T08:02:12;8.80;99.90
31307;DHT22;17935;51.120;13.132;2023-11-21T08:04:43;8.80;99.90
31307;DHT22;17935;51.120;13.132;2023-11-21T08:10:11;8.70;99.90
31307;DHT22;17935;51.120;13.132;2023-11-21T08:12:43;8.70;99.90
31307;DHT22;17935;51.120;13.132;2023-11-21T08:15:33;8.70;99.90
31307;DHT22;17935;51.120;13.132;2023-11-21T08:18:09;8.70;99.90
31307;DHT22;17935;51.120;13.132;2023-11-21T08:21:01;8.60;99.90
31307;DHT22;17935;51.120;13.132;2023-11-21T08:26:25;8.50;99.90
31307;DHT22;17935;51.120;13.132;2023-11-21T08:28:58;8.40;99.90
31307;DHT22;17935;51.120;13.132;2023-11-21T08:31:29;8.40;99.90
31307;DHT22;17935;51.120;13.132;2023-11-21T08:36:59;8.40;99.90
31307;DHT22;17935;51.120;13.132;2023-11-21T08:39:37;8.40;99.90
31307;DHT22;17935;51.120;13.132;2023-11-21T08:42:25;8.40;99.90
31307;DHT22;17935;51.120;13.132;2023-11-21T08:45:18;8.50;99.90
31307;DHT22;17935;51.120;13.132;2023-11-21T08:48:11;8.50;99.90
31307;DHT22;17935;51.120;13.132;2023-11-21T08:50:44;8.60;99.90
31307;DHT22;17935;51.120;13.132;2023-11-21T08:53:16;8.60;99.90
31307;DHT22;17935;51.120;13.132;2023-11-21T08:55:53;8.70;99.90
31307;DHT22;17935;51.120;13.132;2023-11-21T08:58:22;8.70;99.90
31307;DHT22;17935;51.120;13.132;2023-11-21T09:00:55;8.70;99.90
31307;DHT22;17935;51.120;13.132;2023-11-21T09:03:26;8.80;99.90
31307;DHT22;17935;51.120;13.132;2023-11-21T09:09:20;8.90;99.90
31307;DHT22;17935;51.120;13.132;2023-11-21T09:11:52;8.90;99.90
31307;DHT22;17935;51.120;13.132;2023-11-21T09:14:33;9.00;99.90
31307;DHT22;17935;51.120;13.132;2023-11-21T09:19:58;8.60;99.90
31307;DHT22;17935;51.120;13.132;2023-11-21T09:38:25;7.20;99.90
31307;DHT22;17935;51.120;13.132;2023-11-21T09:54:08;6.60;99.90
31307;DHT22;17935;51.120;13.132;2023-11-21T09:57:02;6.50;99.90
31307;DHT22;17935;51.120;13.132;2023-11-21T10:24:04;6.70;99.90
31307;DHT22;17935;51.120;13.132;2023-11-21T10:26:46;6.90;99.90
31307;DHT22;17935;51.120;13.132;2023-11-21T10:29:28;7.00;99.90
31307;DHT22;17935;51.120;13.132;2023-11-21T10:47:36;6.90;99.90
31307;DHT22;17935;51.120;13.132;2023-11-21T10:55:28;6.60;99.90
31307;DHT22;17935;51.120;13.132;2023-11-21T10:58:06;6.60;99.90
31307;DHT22;17935;51.120;13.132;2023-11-21T11:00:39;6.60;99.90
31307;DHT22;17935;51.120;13.132;2023-11-21T11:03:31;6.70;99.90
31307;DHT22;17935;51.120;13.132;2023-11-21T11:05:59;6.70;99.90
31307;DHT22;17935;51.120;13.132;2023-11-21T11:08:56;6.80;99.90
31307;DHT22;17935;51.120;13.132;2023-11-21T11:18:19;6.50;99.90
31307;DHT22;17935;51.120;13.132;2023-11-21T11:36:35;6.50;99.90
31307;DHT22;17935;51.120;13.132;2023-11-21T11:42:35;6.50;99.90
31307;DHT22;17935;51.120;13.132;2023-11-21T11:45:25;6.60;99.90
31307;DHT22;17935;51.120;13.132;2023-11-21T11:48:04;6.60;99.90
31307;DHT22;17935;51.120;13.132;2023-11-21T11:56:21;6.60;99.90
31307;DHT22;17935;51.120;13.132;2023-11-21T11:58:51;7.00;99.90
31307;DHT22;17935;51.120;13.132;2023-11-21T12:01:20;7.20;99.90
31307;DHT22;17935;51.120;13.132;2023-11-21T12:06:51;7.20;99.90
31307;DHT22;17935;51.120;13.132;2023-11-21T12:09:24;7.10;99.90
31307;DHT22;17935;51.120;13.132;2023-11-21T12:11:59;6.90;99.90
31307;DHT22;17935;51.120;13.132;2023-11-21T12:14:30;6.90;99.90
31307;DHT22;17935;51.120;13.132;2023-11-21T12:17:01;6.70;99.90
31307;DHT22;17935;51.120;13.132;2023-11-21T12:19:35;6.70;99.90
31307;DHT22;17935;51.120;13.132;2023-11-21T12:22:15;6.60;99.90
31307;DHT22;17935;51.120;13.132;2023-11-21T12:24:55;6.50;99.90
31307;DHT22;17935;51.120;13.132;2023-11-21T12:27:21;6.50;99.90
31307;DHT22;17935;51.120;13.132;2023-11-21T12:29:55;6.40;99.90
31307;DHT22;17935;51.120;13.132;2023-11-21T12:32:21;6.40;99.90
31307;DHT22;17935;51.120;13.132;2023-11-21T12:34:58;6.30;99.90
31307;DHT22;17935;51.120;13.132;2023-11-21T12:37:24;6.30;99.90
31307;DHT22;17935;51.120;13.132;2023-11-21T12:39:52;6.30;99.90
31307;DHT22;17935;51.120;13.132;2023-11-21T12:42:29;6.30;99.90
31307;DHT22;17935;51.120;13.132;2023-11-21T12:47:45;6.40;99.90
31307;DHT22;17935;51.120;13.132;2023-11-21T12:53:16;6.30;99.90
31307;DHT22;17935;51.120;13.132;2023-11-21T12:55:46;6.10;99.90
31307;DHT22;17935;51.120;13.132;2023-11-21T12:58:39;6.00;99.90
31307;DHT22;17935;51.120;13.132;2023-11-21T13:01:19;6.00;99.90
31307;DHT22;17935;51.120;13.132;2023-11-21T13:03:56;6.00;99.90
31307;DHT22;17935;51.120;13.132;2023-11-21T13:06:24;6.00;99.90
31307;DHT22;17935;51.120;13.132;2023-11-21T13:08:51;6.00;99.90
31307;DHT22;17935;51.120;13.132;2023-11-21T13:11:20;5.90;99.90
31307;DHT22;17935;51.120;13.132;2023-11-21T13:13:50;5.80;99.90
31307;DHT22;17935;51.120;13.132;2023-11-21T13:16:31;5.80;99.90
31307;DHT22;17935;51.120;13.132;2023-11-21T13:19:07;5.80;99.90
31307;DHT22;17935;51.120;13.132;2023-11-21T13:21:39;5.80;99.90
31307;DHT22;17935;51.120;13.132;2023-11-21T13:24:08;5.80;99.90
31307;DHT22;17935;51.120;13.132;2023-11-21T13:26:35;5.80;99.90
31307;DHT22;17935;51.120;13.132;2023-11-21T13:29:34;5.70;99.90
31307;DHT22;17935;51.120;13.132;2023-11-21T13:32:03;5.60;99.90
31307;DHT22;17935;51.120;13.132;2023-11-21T13:34:35;5.50;99.90
31307;DHT22;17935;51.120;13.132;2023-11-21T13:37:02;5.60;99.90
31307;DHT22;17935;51.120;13.132;2023-11-21T13:39:35;5.60;99.90
31307;DHT22;17935;51.120;13.132;2023-11-21T13:42:14;5.60;99.90
31307;DHT22;17935;51.120;13.132;2023-11-21T13:44:41;5.60;99.90
31307;DHT22;17935;51.120;13.132;2023-11-21T13:47:12;5.60;99.90
31307;DHT22;17935;51.120;13.132;2023-11-21T13:49:37;5.60;99.90
31307;DHT22;17935;51.120;13.132;2023-11-21T13:52:06;5.70;99.90
31307;DHT22;17935;51.120;13.132;2023-11-21T13:54:35;5.70;99.90
31307;DHT22;17935;51.120;13.132;2023-11-21T13:57:07;5.70;99.90
31307;DHT22;17935;51.120;13.132;2023-11-21T13:59:38;5.60;99.90
31307;DHT22;17935;51.120;13.132;2023-11-21T14:02:14;5.60;99.90
31307;DHT22;17935;51.120;13.132;2023-11-21T14:05:00;5.50;99.90
31307;DHT22;17935;51.120;13.132;2023-11-21T14:07:36;5.40;99.90
31307;DHT22;17935;51.120;13.132;2023-11-21T14:10:05;5.20;99.90
31307;DHT22;17935;51.120;13.132;2023-11-21T14:12:36;5.10;99.90
31307;DHT22;17935;51.120;13.132;2023-11-21T14:15:13;5.00;99.90
31307;DHT22;17935;51.120;13.132;2023-11-21T14:18:04;4.80;99.90
31307;DHT22;17935;51.120;13.132;2023-11-21T14:20:39;4.70;99.90
31307;DHT22;17935;51.120;13.132;2023-11-21T14:23:05;4.60;99.90
31307;DHT22;17935;51.120;13.132;2023-11-21T14:25:36;4.60;99.90
31307;DHT22;17935;51.120;13.132;2023-11-21T14:28:05;4.50;99.90
31307;DHT22;17935;51.120;13.132;2023-11-21T14:30:35;4.40;99.90
31307;DHT22;17935;51.120;13.132;2023-11-21T16:43:00;3.90;99.90
31307;DHT22;17935;51.120;13.132;2023-11-21T16:45:39;3.90;99.90
31307;DHT22;17935;51.120;13.132;2023-11-21T16:48:18;3.80;99.90
31307;DHT22;17935;51.120;13.132;2023-11-21T16:50:52;3.70;99.90
31307;DHT22;17935;51.120;13.132;2023-11-21T16:53:36;3.70;99.90
31307;DHT22;17935;51.120;13.132;2023-11-21T16:56:18;3.60;99.90
31307;DHT22;17935;51.120;13.132;2023-11-21T16:59:00;3.70;99.90
31307;DHT22;17935;51.120;13.132;2023-11-21T17:01:40;3.60;99.90
31307;DHT22;17935;51.120;13.132;2023-11-21T17:04:11;3.60;99.90
31307;DHT22;17935;51.120;13.132;2023-11-21T17:06:53;3.60;99.90
31307;DHT22;17935;51.120;13.132;2023-11-21T17:09:47;3.60;99.90
31307;DHT22;17935;51.120;13.132;2023-11-21T17:12:19;3.60;99.90
31307;DHT22;17935;51.120;13.132;2023-11-21T17:14:57;3.50;99.90
31307;DHT22;17935;51.120;13.132;2023-11-21T17:17:31;3.50;99.90
31307;DHT22;17935;51.120;13.132;2023-11-21T17:20:16;3.50;99.90
31307;DHT22;17935;51.120;13.132;2023-11-21T17:22:47;3.50;99.90
31307;DHT22;17935;51.120;13.132;2023-11-21T17:28:46;3.50;99.90
31307;DHT22;17935;51.120;13.132;2023-11-21T17:31:29;3.60;99.90
31307;DHT22;17935;51.120;13.132;2023-11-21T17:37:28;3.50;99.90
31307;DHT22;17935;51.120;13.132;2023-11-21T17:50:27;3.40;99.90
31307;DHT22;17935;51.120;13.132;2023-11-21T17:53:05;3.40;99.90
31307;DHT22;17935;51.120;13.132;2023-11-21T17:55:39;3.40;99.90
31307;DHT22;17935;51.120;13.132;2023-11-21T17:58:25;3.50;99.90
31307;DHT22;17935;51.120;13.132;2023-11-21T18:00:57;3.40;99.90
31307;DHT22;17935;51.120;13.132;2023-11-21T18:09:53;3.40;99.90
31307;DHT22;17935;51.120;13.132;2023-11-21T18:12:28;3.40;99.90
31307;DHT22;17935;51.120;13.132;2023-11-21T18:15:06;3.40;99.90
31307;DHT22;17935;51.120;13.132;2023-11-21T18:17:40;3.40;99.90
31307;DHT22;17935;51.120;13.132;2023-11-21T19:17:42;3.50;99.90
31307;DHT22;17935;51.120;13.132;2023-11-21T19:29:44;3.20;99.90
31307;DHT22;17935;51.120;13.132;2023-11-21T19:32:35;3.10;99.90
31307;DHT22;17935;51.120;13.132;2023-11-21T19:35:21;3.10;99.90
31307;DHT22;17935;51.120;13.132;2023-11-21T19:41:59;2.80;99.90
31307;DHT22;17935;51.120;13.132;2023-11-21T19:45:03;2.70;99.90
31307;DHT22;17935;51.120;13.132;2023-11-21T19:48:10;2.70;99.90
31307;DHT22;17935;51.120;13.132;2023-11-21T19:50:58;2.70;99.90
31307;DHT22;17935;51.120;13.132;2023-11-21T19:53:41;2.60;99.90
31307;DHT22;17935;51.120;13.132;2023-11-21T19:59:36;2.60;99.90
31307;DHT22;17935;51.120;13.132;2023-11-21T20:02:39;2.70;99.90
31307;DHT22;17935;51.120;13.132;2023-11-21T20:05:41;2.60;99.90
31307;DHT22;17935;51.120;13.132;2023-11-21T20:08:59;2.70;99.90
31307;DHT22;17935;51.120;13.132;2023-11-21T20:11:34;2.60;99.90
31307;DHT22;17935;51.120;13.132;2023-11-21T20:14:12;2.50;99.90
31307;DHT22;17935;51.120;13.132;2023-11-21T20:17:04;2.50;99.90
31307;DHT22;17935;51.120;13.132;2023-11-21T20:19:38;2.50;99.90
31307;DHT22;17935;51.120;13.132;2023-11-21T20:22:26;2.50;99.90
31307;DHT22;17935;51.120;13.132;2023-11-21T20:25:12;2.50;99.90
31307;DHT22;17935;51.120;13.132;2023-11-21T20:27:44;2.40;99.90
31307;DHT22;17935;51.120;13.132;2023-11-21T20:33:46;2.30;99.90
31307;DHT22;17935;51.120;13.132;2023-11-21T20:36:37;2.10;99.90
31307;DHT22;17935;51.120;13.132;2023-11-21T20:48:08;1.70;99.90
31307;DHT22;17935;51.120;13.132;2023-11-21T20:50:39;1.60;99.90
31307;DHT22;17935;51.120;13.132;2023-11-21T20:53:31;1.50;99.90
31307;DHT22;17935;51.120;13.132;2023-11-21T20:56:11;1.50;99.90
31307;DHT22;17935;51.120;13.132;2023-11-21T21:02:08;1.50;99.90
31307;DHT22;17935;51.120;13.132;2023-11-21T21:04:46;1.50;99.90
31307;DHT22;17935;51.120;13.132;2023-11-21T21:07:20;1.50;99.90
31307;DHT22;17935;51.120;13.132;2023-11-21T21:09:57;1.50;99.90
31307;DHT22;17935;51.120;13.132;2023-11-21T21:12:30;1.50;99.90
31307;DHT22;17935;51.120;13.132;2023-11-21T21:15:13;1.50;99.90
31307;DHT22;17935;51.120;13.132;2023-11-21T21:17:59;1.50;99.90
31307;DHT22;17935;51.120;13.132;2023-11-21T21:20:40;1.50;99.90
31307;DHT22;17935;51.120;13.132;2023-11-21T21:23:32;1.50;99.90
31307;DHT22;17935;51.120;13.132;2023-11-21T21:26:01;1.50;99.90
31307;DHT22;17935;51.120;13.132;2023-11-21T21:34:24;1.50;99.90
31307;DHT22;17935;51.120;13.132;2023-11-21T21:37:01;1.50;99.90
31307;DHT22;17935;51.120;13.132;2023-11-21T21:40:13;1.50;99.90
31307;DHT22;17935;51.120;13.132;2023-11-21T22:18:34;1.50;99.90
31307;DHT22;17935;51.120;13.132;2023-11-21T22:21:12;1.40;99.90
31307;DHT22;17935;51.120;13.132;2023-11-21T22:34:15;1.20;99.90
31307;DHT22;17935;51.120;13.132;2023-11-21T22:37:29;1.20;99.90
31307;DHT22;17935;51.120;13.132;2023-11-21T22:40:39;1.20;99.90
31307;DHT22;17935;51.120;13.132;2023-11-21T22:43:18;1.20;99.90
31307;DHT22;17935;51.120;13.132;2023-11-21T22:45:52;1.20;99.90
31307;DHT22;17935;51.120;13.132;2023-11-21T22:48:41;1.10;99.90
31307;DHT22;17935;51.120;13.132;2023-11-21T22:51:49;1.10;99.90
31307;DHT22;17935;51.120;13.132;2023-11-21T22:54:38;1.00;99.90
31307;DHT22;17935;51.120;13.132;2023-11-21T22:57:04;1.00;99.90
31307;DHT22;17935;51.120;13.132;2023-11-21T22:59:35;0.90;99.90
31307;DHT22;17935;51.120;13.132;2023-11-21T23:02:06;0.90;99.90
31307;DHT22;17935;51.120;13.132;2023-11-21T23:04:38;0.90;99.90
31307;DHT22;17935;51.120;13.132;2023-11-21T23:07:13;0.80;99.90
31307;DHT22;17935;51.120;13.132;2023-11-21T23:09:51;0.80;99.90
31307;DHT22;17935;51.120;13.132;2023-11-21T23:12:29;0.80;99.90
31307;DHT22;17935;51.120;13.132;2023-11-21T23:15:09;0.80;99.90
31307;DHT22;17935;51.120;13.132;2023-11-21T23:20:23;0.80;99.90
31307;DHT22;17935;51.120;13.132;2023-11-21T23:23:05;0.90;99.90
31307;DHT22;17935;51.120;13.132;2023-11-21T23:25:47;0.90;99.90
31307;DHT22;17935;51.120;13.132;2023-11-21T23:31:26;0.90;99.90
31307;DHT22;17935;51.120;13.132;2023-11-21T23:37:24;0.90;99.90
31307;DHT22;17935;51.120;13.132;2023-11-21T23:42:47;0.90;99.90
31307;DHT22;17935;51.120;13.132;2023-11-21T23:45:37;0.90;99.90
31307;DHT22;17935;51.120;13.132;2023-11-21T23:48:06;0.90;99.90
31307;DHT22;17935;51.120;13.132;2023-11-21T23:50:43;1.00;99.90
31307;DHT22;17935;51.120;13.132;2023-11-21T23:53:15;1.00;99.90
31307;DHT22;17935;51.120;13.132;2023-11-21T23:55:49;1.00;99.90
31307;DHT22;17935;51.120;13.132;2023-11-21T23:58:20;0.90;99.90
